Terminal Aerodrome Forecast
Issued by NWS Bismarck, ND

Home | Current Version | Previous Version | Graphics & Text | Print | Product List | Glossary On
Versions: 1 2 3 4 5 6 7 8 9 10 11 12 13 14 15 16
265
FTUS43 KBIS 211130
TAFISN
TAF
KISN 211130Z 2112/2212 06009KT P6SM VCSH FEW100 SCT200
     FM211500 34007KT P6SM FEW090 SCT150
     FM211800 31011KT P6SM FEW090 FEW250
     FM220300 30006KT P6SM SKC=

USA.gov is the U.S. government's official web portal to all federal, state and local government web resources and services.